createdAt,value
2022-12-15T00:02:24.641Z,-2.77
2022-12-15T00:05:10.225Z,-2.69
2022-12-15T00:07:55.354Z,-2.83
2022-12-15T00:10:40.471Z,-2.69
2022-12-15T00:13:29.668Z,-2.67
2022-12-15T00:16:15.497Z,-2.65
2022-12-15T00:19:02.141Z,-2.59
2022-12-15T00:21:47.352Z,-2.63
2022-12-15T00:24:32.753Z,-2.75
2022-12-15T00:27:18.055Z,-2.77
2022-12-15T00:30:03.305Z,-2.83
2022-12-15T00:32:48.751Z,-2.85
2022-12-15T00:35:35.463Z,-2.87
2022-12-15T00:38:25.820Z,-3.14
2022-12-15T00:40:58.908Z,-2.96
2022-12-15T00:43:27.692Z,-3.01
2022-12-15T00:46:13.181Z,-2.98
2022-12-15T00:48:41.181Z,-3.16
2022-12-15T00:51:09.677Z,-3.10
2022-12-15T00:53:55.440Z,-2.96
2022-12-15T00:56:41.270Z,-3.25
2022-12-15T00:59:26.549Z,-3.00
2022-12-15T01:02:12.608Z,-2.86
2022-12-15T01:04:57.950Z,-2.80
2022-12-15T01:07:44.924Z,-2.74
2022-12-15T01:10:35.261Z,-2.91
2022-12-15T01:13:20.710Z,-3.12
2022-12-15T01:16:06.247Z,-2.96
2022-12-15T01:18:52.253Z,-3.15
2022-12-15T01:21:24.680Z,-3.26
2022-12-15T01:23:54.538Z,-3.18
2022-12-15T01:26:22.466Z,-2.90
2022-12-15T01:28:50.382Z,-2.92
2022-12-15T01:31:18.216Z,-2.88
2022-12-15T01:33:46.054Z,-2.91
2022-12-15T01:36:14.254Z,-2.89
2022-12-15T01:38:42.740Z,-2.98
2022-12-15T01:41:12.357Z,-3.08
2022-12-15T01:43:41.258Z,-3.04
2022-12-15T01:46:11.061Z,-2.93
2022-12-15T01:48:44.492Z,-2.89
2022-12-15T01:51:16.939Z,-3.08
2022-12-15T01:53:50.037Z,-2.99
2022-12-15T01:56:20.334Z,-2.79
2022-12-15T01:58:50.985Z,-2.89
2022-12-15T02:01:19.183Z,-2.81
2022-12-15T02:03:48.570Z,-2.77
2022-12-15T02:06:17.735Z,-2.76
2022-12-15T02:08:47.490Z,-2.64
2022-12-15T02:11:38.329Z,-2.59
2022-12-15T02:14:07.588Z,-2.63
2022-12-15T02:16:46.651Z,-2.63
2022-12-15T02:19:40.948Z,-2.58
2022-12-15T02:22:20.642Z,-2.54
2022-12-15T02:25:10.808Z,-2.67
2022-12-15T02:27:49.588Z,-2.71
2022-12-15T02:30:21.706Z,-2.54
2022-12-15T02:32:56.671Z,-2.56
2022-12-15T02:35:29.353Z,-2.61
2022-12-15T02:37:57.219Z,-2.46
2022-12-15T02:40:25.021Z,-2.49
2022-12-15T02:42:55.129Z,-2.37
2022-12-15T02:45:30.824Z,-2.32
2022-12-15T02:48:08.085Z,-2.21
2022-12-15T02:50:59.242Z,-2.15
2022-12-15T02:53:39.704Z,-2.08
2022-12-15T02:56:15.137Z,-2.21
2022-12-15T02:58:49.006Z,-2.37
2022-12-15T03:01:23.218Z,-2.34
2022-12-15T03:03:51.980Z,-2.21
2022-12-15T03:06:20.212Z,-1.99
2022-12-15T03:08:47.967Z,-1.89
2022-12-15T03:11:15.740Z,-1.91
2022-12-15T03:13:43.553Z,-1.94
2022-12-15T03:16:11.521Z,-2.01
2022-12-15T03:18:41.001Z,-1.84
2022-12-15T03:21:08.786Z,-1.88
2022-12-15T03:23:36.542Z,-1.80
2022-12-15T03:26:04.318Z,-1.78
2022-12-15T03:28:32.112Z,-1.96
2022-12-15T03:30:59.864Z,-1.88
2022-12-15T03:33:27.796Z,-1.94
2022-12-15T03:35:57.221Z,-2.01
2022-12-15T03:38:25.031Z,-1.99
2022-12-15T03:40:52.792Z,-1.99
2022-12-15T03:43:20.611Z,-1.87
2022-12-15T03:45:48.477Z,-1.91
2022-12-15T03:48:16.307Z,-2.10
2022-12-15T03:50:44.484Z,-2.17
2022-12-15T03:53:13.598Z,-2.32
2022-12-15T03:55:41.383Z,-2.08
2022-12-15T03:58:09.122Z,-1.98
2022-12-15T04:00:36.948Z,-1.97
2022-12-15T04:03:05.048Z,-1.76
2022-12-15T04:05:34.806Z,-1.89
2022-12-15T04:08:03.219Z,-1.97
2022-12-15T04:10:35.280Z,-2.03
2022-12-15T04:13:05.468Z,-1.99
2022-12-15T04:15:33.924Z,-2.11
2022-12-15T04:18:02.758Z,-1.92
2022-12-15T04:20:29.943Z,-1.91
2022-12-15T04:22:58.181Z,-1.78
2022-12-15T04:25:44.583Z,-1.90
2022-12-15T04:28:32.612Z,-2.11
2022-12-15T04:31:21.724Z,-1.94
2022-12-15T04:34:09.840Z,-2.03
2022-12-15T04:36:55.992Z,-2.16
2022-12-15T04:39:41.904Z,-1.94
2022-12-15T04:42:27.395Z,-1.92
2022-12-15T04:45:20.628Z,-2.00
2022-12-15T04:48:06.831Z,-1.88
2022-12-15T04:50:52.481Z,-1.83
2022-12-15T04:53:38.473Z,-1.91
2022-12-15T04:56:28.995Z,-1.99
2022-12-15T04:59:14.403Z,-1.99
2022-12-15T05:02:01.731Z,-1.99
2022-12-15T05:04:47.288Z,-1.98
2022-12-15T05:07:32.728Z,-2.05
2022-12-15T05:10:17.948Z,-1.99
2022-12-15T05:13:03.039Z,-1.92
2022-12-15T05:15:48.781Z,-1.95
2022-12-15T05:18:35.613Z,-1.89
2022-12-15T05:21:21.240Z,-1.88
2022-12-15T05:24:06.493Z,-1.89
2022-12-15T05:26:53.220Z,-1.83
2022-12-15T05:29:39.003Z,-1.83
2022-12-15T05:32:07.204Z,-1.79
2022-12-15T05:34:37.261Z,-1.90
2022-12-15T05:37:07.254Z,-1.93
2022-12-15T05:39:35.161Z,-1.93
2022-12-15T05:42:02.958Z,-1.87
2022-12-15T05:44:30.763Z,-2.02
2022-12-15T05:46:58.525Z,-1.79
2022-12-15T05:49:26.506Z,-1.72
2022-12-15T05:51:57.145Z,-1.70
2022-12-15T05:54:24.904Z,-1.69
2022-12-15T05:56:52.695Z,-1.71
2022-12-15T05:59:20.690Z,-1.89
2022-12-15T06:01:48.570Z,-1.83
2022-12-15T06:04:16.446Z,-1.78
2022-12-15T06:06:44.244Z,-1.75
2022-12-15T06:09:13.438Z,-1.63
2022-12-15T06:11:41.180Z,-1.65
2022-12-15T06:14:09.591Z,-1.61
2022-12-15T06:16:44.268Z,-1.64
2022-12-15T06:19:19.071Z,-1.70
2022-12-15T06:21:46.831Z,-1.80
2022-12-15T06:24:15.927Z,-1.93
2022-12-15T06:26:43.634Z,-1.83
2022-12-15T06:29:13.159Z,-1.87
2022-12-15T06:31:41.924Z,-1.84
2022-12-15T06:34:12.394Z,-1.67
2022-12-15T06:36:40.405Z,-1.68
2022-12-15T06:39:09.605Z,-1.61
2022-12-15T06:41:38.771Z,-1.62
2022-12-15T06:44:06.829Z,-1.64
2022-12-15T06:46:35.647Z,-1.61
2022-12-15T06:49:03.760Z,-1.63
2022-12-15T06:51:32.282Z,-1.65
2022-12-15T06:54:01.724Z,-1.75
2022-12-15T06:56:34.207Z,-1.79
2022-12-15T06:59:04.891Z,-1.67
2022-12-15T07:01:33.184Z,-1.67
2022-12-15T07:04:02.736Z,-1.64
2022-12-15T07:06:34.177Z,-1.55
2022-12-15T07:09:02.241Z,-1.61
2022-12-15T07:11:30.031Z,-1.71
2022-12-15T07:13:58.037Z,-1.69
2022-12-15T07:16:27.199Z,-1.71
2022-12-15T07:18:55.047Z,-1.53
2022-12-15T07:21:22.863Z,-1.60
2022-12-15T07:23:55.753Z,-1.65
2022-12-15T07:26:25.253Z,-1.54
2022-12-15T07:28:53.596Z,-1.57
2022-12-15T07:31:22.497Z,-1.57
2022-12-15T07:33:52.411Z,-1.51
2022-12-15T07:36:20.639Z,-1.52
2022-12-15T07:38:50.305Z,-1.52
2022-12-15T07:41:19.460Z,-1.54
2022-12-15T07:43:48.216Z,-1.42
2022-12-15T07:46:16.553Z,-1.41
2022-12-15T07:48:44.447Z,-1.41
2022-12-15T07:51:21.263Z,-1.42
2022-12-15T07:53:50.951Z,-1.59
2022-12-15T07:56:19.601Z,-1.62
2022-12-15T07:58:47.815Z,-1.50
2022-12-15T08:01:16.430Z,-1.38
2022-12-15T08:03:44.981Z,-1.38
2022-12-15T08:06:14.595Z,-1.39
2022-12-15T08:08:45.187Z,-1.20
2022-12-15T08:11:19.501Z,-0.92
2022-12-15T08:14:04.537Z,-1.01
2022-12-15T08:16:36.311Z,-0.86
2022-12-15T08:19:05.225Z,-0.66
2022-12-15T08:21:33.474Z,-0.96
2022-12-15T08:24:02.590Z,-0.97
2022-12-15T08:26:31.413Z,-1.24
2022-12-15T08:29:31.798Z,-1.12
2022-12-15T08:31:51.776Z,-0.70
2022-12-15T08:34:19.613Z,-0.48
2022-12-15T08:36:47.386Z,-0.38
2022-12-15T08:39:16.561Z,-0.32
2022-12-15T08:41:44.707Z,-0.24
2022-12-15T08:44:12.484Z,-0.32
2022-12-15T08:46:40.244Z,-0.15
2022-12-15T08:49:08.667Z,0.07
2022-12-15T08:51:36.560Z,0.16
2022-12-15T08:54:04.509Z,0.26
2022-12-15T08:56:33.636Z,0.33
2022-12-15T08:59:02.692Z,0.51
2022-12-15T09:01:32.868Z,0.51
2022-12-15T09:04:01.420Z,0.59
2022-12-15T09:06:31.895Z,0.56
2022-12-15T09:09:01.338Z,0.86
2022-12-15T09:11:30.189Z,0.60
2022-12-15T09:13:59.898Z,0.44
2022-12-15T09:16:28.484Z,0.47
2022-12-15T09:18:58.422Z,0.36
2022-12-15T09:21:28.229Z,0.73
2022-12-15T09:24:00.528Z,0.88
2022-12-15T09:26:29.647Z,0.97
2022-12-15T09:28:58.965Z,1.05
2022-12-15T09:31:28.671Z,1.43
2022-12-15T09:33:58.667Z,1.38
2022-12-15T09:36:27.059Z,1.37
2022-12-15T09:38:55.160Z,1.41
2022-12-15T09:41:25.289Z,1.65
2022-12-15T09:43:56.717Z,1.66
2022-12-15T09:46:44.012Z,1.84
2022-12-15T09:49:25.036Z,2.12
2022-12-15T09:51:58.997Z,1.80
2022-12-15T09:54:30.223Z,1.87
2022-12-15T09:56:59.504Z,1.94
2022-12-15T09:59:33.232Z,2.16
2022-12-15T10:02:22.909Z,2.20
2022-12-15T10:04:57.153Z,2.25
2022-12-15T10:07:29.819Z,2.34
2022-12-15T10:09:57.738Z,2.42
2022-12-15T10:12:28.905Z,2.59
2022-12-15T10:15:05.494Z,2.20
2022-12-15T10:17:42.357Z,2.64
2022-12-15T10:20:18.403Z,2.95
2022-12-15T10:22:50.364Z,2.81
2022-12-15T10:25:27.527Z,3.02
2022-12-15T10:28:13.910Z,3.37
2022-12-15T10:30:50.760Z,4.06
2022-12-15T10:33:21.594Z,4.07
2022-12-15T10:35:50.106Z,4.46
2022-12-15T10:38:26.910Z,4.98
2022-12-15T10:40:56.204Z,5.00
2022-12-15T10:43:29.644Z,5.43
2022-12-15T10:46:02.973Z,5.33
2022-12-15T10:48:32.229Z,6.23
2022-12-15T10:51:15.050Z,7.25
2022-12-15T10:53:50.365Z,7.23
2022-12-15T10:56:30.686Z,8.12
2022-12-15T10:59:03.581Z,8.28
2022-12-15T11:01:33.550Z,7.85
2022-12-15T11:04:02.871Z,9.43
2022-12-15T11:06:32.797Z,9.19
2022-12-15T11:09:10.706Z,10.53
2022-12-15T11:12:05.616Z,11.17
2022-12-15T11:14:44.172Z,11.66
2022-12-15T11:17:16.622Z,11.25
2022-12-15T11:19:55.208Z,11.56
2022-12-15T11:22:32.846Z,12.02
2022-12-15T11:25:03.474Z,10.79
2022-12-15T11:27:34.428Z,8.45
2022-12-15T11:30:06.378Z,8.26
2022-12-15T11:32:35.266Z,7.99
2022-12-15T11:35:04.927Z,9.99
2022-12-15T11:37:41.827Z,9.18
2022-12-15T11:40:24.969Z,9.94
2022-12-15T11:43:06.439Z,12.89
2022-12-15T11:45:38.249Z,14.09
2022-12-15T11:48:13.059Z,12.39
2022-12-15T11:50:51.209Z,14.76
2022-12-15T11:53:37.929Z,12.30
2022-12-15T11:56:12.298Z,12.80
2022-12-15T11:58:54.792Z,14.49
2022-12-15T12:01:36.857Z,12.51
2022-12-15T12:04:13.242Z,14.96
2022-12-15T12:06:49.348Z,16.86
2022-12-15T12:09:29.349Z,11.70
2022-12-15T12:12:04.452Z,15.55
2022-12-15T12:14:41.417Z,19.87
2022-12-15T12:17:14.892Z,15.01
2022-12-15T12:19:44.696Z,13.17
2022-12-15T12:22:25.284Z,12.94
2022-12-15T12:24:56.984Z,12.13
2022-12-15T12:27:30.257Z,10.62
2022-12-15T12:30:01.946Z,10.24
2022-12-15T12:32:36.788Z,13.38
2022-12-15T12:35:30.655Z,15.52
2022-12-15T12:38:03.877Z,16.36
2022-12-15T12:40:38.309Z,15.66
2022-12-15T12:43:11.863Z,15.81
2022-12-15T12:45:50.359Z,13.91
2022-12-15T12:48:24.776Z,12.63
2022-12-15T12:50:52.949Z,11.04
2022-12-15T12:53:35.727Z,12.07
2022-12-15T12:56:03.714Z,12.12
2022-12-15T12:58:32.674Z,10.81
2022-12-15T13:01:20.020Z,11.13
2022-12-15T13:04:07.454Z,10.26
2022-12-15T13:06:58.116Z,11.91
2022-12-15T13:09:39.368Z,10.83
2022-12-15T13:12:50.700Z,13.04
2022-12-15T13:15:30.828Z,10.73
2022-12-15T13:18:00.902Z,14.00
2022-12-15T13:20:29.674Z,16.68
2022-12-15T13:23:19.481Z,17.89
2022-12-15T13:26:03.253Z,17.99
2022-12-15T13:28:43.611Z,19.31
2022-12-15T13:31:27.468Z,16.02
2022-12-15T13:34:13.363Z,15.83
2022-12-15T13:39:58.345Z,16.23
2022-12-15T13:42:52.900Z,18.30
2022-12-15T13:45:41.094Z,13.37
2022-12-15T13:48:18.069Z,10.97
2022-12-15T13:50:51.261Z,10.40
2022-12-15T13:53:22.229Z,11.57
2022-12-15T13:56:02.264Z,13.38
2022-12-15T13:58:33.934Z,14.81
2022-12-15T14:01:03.676Z,16.81
2022-12-15T14:03:32.036Z,14.88
2022-12-15T14:06:00.884Z,13.30
2022-12-15T14:08:30.100Z,12.77
2022-12-15T14:10:59.115Z,11.40
2022-12-15T14:13:29.659Z,11.08
2022-12-15T14:16:00.911Z,11.88
2022-12-15T14:18:31.225Z,13.09
2022-12-15T14:20:59.610Z,13.72
2022-12-15T14:23:29.906Z,12.86
2022-12-15T14:26:04.182Z,15.17
2022-12-15T14:28:33.676Z,15.93
2022-12-15T14:31:05.118Z,14.33
2022-12-15T14:33:36.184Z,13.67
2022-12-15T14:36:07.450Z,11.87
2022-12-15T14:38:42.401Z,11.06
2022-12-15T14:41:13.367Z,12.50
2022-12-15T14:43:41.470Z,13.57
2022-12-15T14:46:12.612Z,13.37
2022-12-15T14:48:42.669Z,13.54
2022-12-15T14:51:12.034Z,13.54
2022-12-15T14:53:41.544Z,12.74
2022-12-15T14:56:30.057Z,10.90
2022-12-15T14:59:20.319Z,9.37
2022-12-15T15:03:05.496Z,15.02
2022-12-15T15:03:14.738Z,8.75
2022-12-15T15:04:42.659Z,8.45
2022-12-15T15:07:18.417Z,8.01
2022-12-15T15:09:46.980Z,7.46
2022-12-15T15:12:16.803Z,6.96
2022-12-15T15:14:46.538Z,6.64
2022-12-15T15:17:24.741Z,6.30
2022-12-15T15:19:54.951Z,5.95
2022-12-15T15:22:30.848Z,5.64
2022-12-15T15:24:58.767Z,5.62
2022-12-15T15:27:29.590Z,5.45
2022-12-15T15:30:13.442Z,5.19
2022-12-15T15:32:52.920Z,4.93
2022-12-15T15:35:20.958Z,4.70
2022-12-15T15:37:48.891Z,4.52
2022-12-15T15:40:18.606Z,4.28
2022-12-15T15:42:46.905Z,4.45
2022-12-15T15:45:15.708Z,4.36
2022-12-15T15:47:46.683Z,4.17
2022-12-15T15:50:17.925Z,3.94
2022-12-15T15:52:45.735Z,3.95
2022-12-15T15:55:17.986Z,3.70
2022-12-15T15:57:45.729Z,3.73
2022-12-15T16:00:19.525Z,3.61
2022-12-15T16:02:47.596Z,3.52
2022-12-15T16:05:17.107Z,3.41
2022-12-15T16:07:46.491Z,3.21
2022-12-15T16:10:16.597Z,3.18
2022-12-15T16:12:46.543Z,3.16
2022-12-15T16:15:16.615Z,2.83
2022-12-15T16:17:44.609Z,2.73
2022-12-15T16:20:13.822Z,2.85
2022-12-15T16:22:43.807Z,2.76
2022-12-15T16:25:15.707Z,2.69
2022-12-15T16:27:43.638Z,2.60
2022-12-15T16:30:17.427Z,2.56
2022-12-15T16:32:45.189Z,2.46
2022-12-15T16:35:13.479Z,2.13
2022-12-15T16:37:46.591Z,2.22
2022-12-15T16:40:16.651Z,2.15
2022-12-15T16:42:46.037Z,2.15
2022-12-15T16:45:18.129Z,1.95
2022-12-15T16:47:46.117Z,1.68
2022-12-15T16:50:15.832Z,1.72
2022-12-15T16:52:45.496Z,1.85
2022-12-15T16:55:19.729Z,1.76
2022-12-15T16:57:48.379Z,1.67
2022-12-15T17:00:18.600Z,1.51
2022-12-15T17:02:46.699Z,1.56
2022-12-15T17:05:14.864Z,1.54
2022-12-15T17:07:43.525Z,1.44
2022-12-15T17:10:18.820Z,1.39
2022-12-15T17:12:47.320Z,1.41
2022-12-15T17:15:23.742Z,1.35
2022-12-15T17:17:52.167Z,1.21
2022-12-15T17:20:30.236Z,1.19
2022-12-15T17:23:00.515Z,0.99
2022-12-15T17:26:09.193Z,0.73
2022-12-15T17:28:25.773Z,1.05
2022-12-15T17:30:53.615Z,1.12
2022-12-15T17:33:23.204Z,1.00
2022-12-15T17:35:52.887Z,0.93
2022-12-15T17:38:21.826Z,0.96
2022-12-15T17:40:51.974Z,0.91
2022-12-15T17:43:21.736Z,0.77
2022-12-15T17:45:50.817Z,0.70
2022-12-15T17:48:18.960Z,0.61
2022-12-15T17:50:49.819Z,0.58
2022-12-15T17:53:18.713Z,0.64
2022-12-15T17:55:46.918Z,0.64
2022-12-15T17:58:20.507Z,0.50
2022-12-15T18:00:51.786Z,0.57
2022-12-15T18:03:21.252Z,0.54
2022-12-15T18:05:49.700Z,0.40
2022-12-15T18:08:19.432Z,0.41
2022-12-15T18:10:48.650Z,0.38
2022-12-15T18:13:19.084Z,0.39
2022-12-15T18:15:47.760Z,0.43
2022-12-15T18:18:16.365Z,0.38
2022-12-15T18:20:44.204Z,0.41
2022-12-15T18:23:15.899Z,0.27
2022-12-15T18:25:44.403Z,0.38
2022-12-15T18:28:21.860Z,0.32
2022-12-15T18:30:50.551Z,0.27
2022-12-15T18:33:18.267Z,0.16
2022-12-15T18:35:47.800Z,0.21
2022-12-15T18:38:17.316Z,0.15
2022-12-15T18:40:46.421Z,-0.21
2022-12-15T18:43:16.371Z,-0.35
2022-12-15T18:45:46.086Z,-0.14
2022-12-15T18:48:17.654Z,-0.12
2022-12-15T18:50:46.409Z,-0.06
2022-12-15T18:53:19.312Z,-0.15
2022-12-15T18:55:48.095Z,-0.23
2022-12-15T18:58:22.373Z,-0.38
2022-12-15T19:00:52.446Z,-0.43
2022-12-15T19:03:20.893Z,-0.16
2022-12-15T19:05:49.832Z,-0.29
2022-12-15T19:08:20.092Z,-0.21
2022-12-15T19:10:51.857Z,-0.35
2022-12-15T19:13:21.673Z,-0.37
2022-12-15T19:15:51.332Z,-0.34
2022-12-15T19:18:38.671Z,-0.35
2022-12-15T19:21:35.821Z,-0.44
2022-12-15T19:24:03.867Z,-0.71
2022-12-15T19:26:31.746Z,-0.74
2022-12-15T19:29:00.021Z,-0.71
2022-12-15T19:31:29.407Z,-0.70
2022-12-15T19:33:57.161Z,-0.61
2022-12-15T19:36:25.267Z,-0.56
2022-12-15T19:38:55.525Z,-0.58
2022-12-15T19:41:23.387Z,-0.67
2022-12-15T19:43:51.193Z,-0.68
2022-12-15T19:46:21.588Z,-0.75
2022-12-15T19:48:50.727Z,-0.72
2022-12-15T19:51:20.971Z,-0.69
2022-12-15T19:53:50.054Z,-0.70
2022-12-15T19:56:21.703Z,-0.92
2022-12-15T19:58:50.410Z,-1.29
2022-12-15T20:01:19.913Z,-1.01
2022-12-15T20:03:50.914Z,-0.91
2022-12-15T20:06:20.575Z,-1.04
2022-12-15T20:08:50.440Z,-1.03
2022-12-15T20:11:20.046Z,-1.25
2022-12-15T20:13:48.651Z,-1.07
2022-12-15T20:16:18.837Z,-1.03
2022-12-15T20:18:47.117Z,-1.00
2022-12-15T20:21:22.092Z,-1.01
2022-12-15T20:23:54.117Z,-0.98
2022-12-15T20:26:23.527Z,-0.96
2022-12-15T20:28:51.943Z,-1.14
2022-12-15T20:31:22.204Z,-1.26
2022-12-15T20:33:50.236Z,-1.55
2022-12-15T20:36:20.629Z,-1.31
2022-12-15T20:38:48.847Z,-1.21
2022-12-15T20:41:18.494Z,-1.19
2022-12-15T20:43:46.707Z,-1.12
2022-12-15T20:46:17.031Z,-1.19
2022-12-15T20:48:45.645Z,-1.23
2022-12-15T20:51:17.102Z,-1.16
2022-12-15T20:53:46.492Z,-1.21
2022-12-15T20:56:14.384Z,-1.29
2022-12-15T20:58:43.032Z,-1.39
2022-12-15T21:01:19.289Z,-1.66
2022-12-15T21:03:48.192Z,-1.51
2022-12-15T21:06:16.105Z,-1.41
2022-12-15T21:08:43.849Z,-1.43
2022-12-15T21:11:16.172Z,-1.43
2022-12-15T21:13:43.961Z,-1.69
2022-12-15T21:16:16.571Z,-1.67
2022-12-15T21:21:34.803Z,-1.59
2022-12-15T21:24:05.568Z,-1.71
2022-12-15T21:26:34.749Z,-1.75
2022-12-15T21:29:03.056Z,-1.81
2022-12-15T21:31:30.842Z,-1.70
2022-12-15T21:33:58.651Z,-1.71
2022-12-15T21:36:28.056Z,-1.89
2022-12-15T21:38:55.991Z,-2.17
2022-12-15T21:41:24.512Z,-2.18
2022-12-15T21:43:53.591Z,-1.79
2022-12-15T21:46:28.384Z,-1.75
2022-12-15T21:49:13.910Z,-1.83
2022-12-15T21:51:43.359Z,-1.80
2022-12-15T21:54:17.749Z,-1.85
2022-12-15T21:56:46.168Z,-1.93
2022-12-15T21:59:17.192Z,-2.13
2022-12-15T22:01:45.092Z,-2.48
2022-12-15T22:04:18.424Z,-2.57
2022-12-15T22:06:50.588Z,-2.37
2022-12-15T22:09:19.416Z,-2.19
2022-12-15T22:11:49.165Z,-2.04
2022-12-15T22:14:25.150Z,-2.10
2022-12-15T22:16:53.291Z,-2.15
2022-12-15T22:19:21.349Z,-2.21
2022-12-15T22:21:49.249Z,-2.20
2022-12-15T22:24:17.025Z,-2.61
2022-12-15T22:26:45.031Z,-2.58
2022-12-15T22:29:14.123Z,-2.27
2022-12-15T22:31:43.283Z,-2.16
2022-12-15T22:34:14.628Z,-2.10
2022-12-15T22:36:42.412Z,-1.99
2022-12-15T22:39:11.146Z,-2.04
2022-12-15T22:41:40.244Z,-2.32
2022-12-15T22:44:16.180Z,-2.69
2022-12-15T22:46:45.528Z,-2.50
2022-12-15T22:49:15.424Z,-2.97
2022-12-15T22:51:43.131Z,-2.82
2022-12-15T22:54:18.753Z,-2.41
2022-12-15T22:56:47.652Z,-2.30
2022-12-15T22:59:20.157Z,-2.64
2022-12-15T23:01:49.358Z,-2.58
2022-12-15T23:04:17.232Z,-2.89
2022-12-15T23:06:45.309Z,-2.96
2022-12-15T23:09:13.180Z,-2.57
2022-12-15T23:11:41.369Z,-2.42
2022-12-15T23:14:10.896Z,-2.49
2022-12-15T23:16:37.934Z,-2.62
2022-12-15T23:19:08.632Z,-2.86
2022-12-15T23:21:37.137Z,-2.63
2022-12-15T23:24:05.054Z,-2.55
2022-12-15T23:26:32.825Z,-2.46
2022-12-15T23:29:00.649Z,-2.56
2022-12-15T23:31:28.996Z,-2.41
2022-12-15T23:33:56.843Z,-2.50
2022-12-15T23:36:25.982Z,-2.49
2022-12-15T23:38:55.059Z,-2.57
2022-12-15T23:41:22.841Z,-2.86
2022-12-15T23:43:51.084Z,-2.94
2022-12-15T23:46:19.694Z,-3.01
2022-12-15T23:48:47.520Z,-2.89
2022-12-15T23:51:16.844Z,-2.82
2022-12-15T23:53:47.287Z,-2.69
2022-12-15T23:56:17.246Z,-2.61
2022-12-15T23:58:46.619Z,-2.96
